createdAt,value
2023-05-14T00:00:42.436Z,74.70
2023-05-14T00:03:11.234Z,75.10
2023-05-14T00:05:39.325Z,75.20
2023-05-14T00:08:07.458Z,75.10
2023-05-14T00:10:36.883Z,75.20
2023-05-14T00:13:05.399Z,75.50
2023-05-14T00:15:34.304Z,75.50
2023-05-14T00:18:03.211Z,75.50
2023-05-14T00:20:32.586Z,75.70
2023-05-14T00:23:00.697Z,75.80
2023-05-14T00:25:29.206Z,75.80
2023-05-14T00:27:58.635Z,75.80
2023-05-14T00:30:26.681Z,75.90
2023-05-14T00:32:55.216Z,75.90
2023-05-14T00:35:23.958Z,75.80
2023-05-14T00:37:52.506Z,75.80
2023-05-14T00:40:21.676Z,75.80
2023-05-14T00:42:50.319Z,75.80
2023-05-14T00:45:19.818Z,75.80
2023-05-14T00:47:48.760Z,76.00
2023-05-14T00:50:17.493Z,76.10
2023-05-14T00:52:46.261Z,77.10
2023-05-14T00:55:17.708Z,76.20
2023-05-14T00:57:46.132Z,76.10
2023-05-14T01:00:15.541Z,75.80
2023-05-14T01:02:45.029Z,76.00
2023-05-14T01:05:13.901Z,76.00
2023-05-14T01:07:56.393Z,76.00
2023-05-14T01:10:30.969Z,76.30
2023-05-14T01:13:09.027Z,76.30
2023-05-14T01:15:41.398Z,76.50
2023-05-14T01:18:15.003Z,76.30
2023-05-14T01:20:44.532Z,76.30
2023-05-14T01:23:15.055Z,76.20
2023-05-14T01:25:43.591Z,76.20
2023-05-14T01:28:18.555Z,76.30
2023-05-14T01:30:53.181Z,76.50
2023-05-14T01:33:22.925Z,76.70
2023-05-14T01:35:54.114Z,76.70
2023-05-14T01:38:25.052Z,77.10
2023-05-14T01:40:55.437Z,77.40
2023-05-14T01:43:24.818Z,77.70
2023-05-14T01:45:55.351Z,77.80
2023-05-14T01:48:24.086Z,78.20
2023-05-14T01:50:52.144Z,78.20
2023-05-14T01:53:20.651Z,78.40
2023-05-14T01:55:50.059Z,78.50
2023-05-14T01:58:18.571Z,78.80
2023-05-14T02:00:46.655Z,79.00
2023-05-14T02:03:15.235Z,79.00
2023-05-14T02:05:43.268Z,79.10
2023-05-14T02:08:11.808Z,79.30
2023-05-14T02:10:40.452Z,79.30
2023-05-14T02:13:10.644Z,79.40
2023-05-14T02:15:39.706Z,79.50
2023-05-14T02:18:08.331Z,79.50
2023-05-14T02:20:36.935Z,79.30
2023-05-14T02:23:05.240Z,79.30
2023-05-14T02:25:33.760Z,79.20
2023-05-14T02:28:01.867Z,79.00
2023-05-14T02:30:32.177Z,78.90
2023-05-14T02:33:00.296Z,78.70
2023-05-14T02:35:29.051Z,78.40
2023-05-14T02:37:57.074Z,78.20
2023-05-14T02:40:26.166Z,78.20
2023-05-14T02:42:54.807Z,78.10
2023-05-14T02:45:23.324Z,78.10
2023-05-14T02:47:52.758Z,78.10
2023-05-14T02:50:21.607Z,78.30
2023-05-14T02:52:49.855Z,78.40
2023-05-14T02:55:18.470Z,78.40
2023-05-14T02:57:46.795Z,78.40
2023-05-14T03:00:15.467Z,78.40
2023-05-14T03:02:44.775Z,78.60
2023-05-14T03:05:15.252Z,78.70
2023-05-14T03:07:43.325Z,79.00
2023-05-14T03:10:12.668Z,79.00
2023-05-14T03:12:41.272Z,79.10
2023-05-14T03:15:10.959Z,79.30
2023-05-14T03:17:39.517Z,79.40
2023-05-14T03:20:08.663Z,79.40
2023-05-14T03:22:38.653Z,79.50
2023-05-14T03:25:07.936Z,79.50
2023-05-14T03:27:35.981Z,79.50
2023-05-14T03:30:04.701Z,79.50
2023-05-14T03:32:33.222Z,79.50
2023-05-14T03:35:01.326Z,79.50
2023-05-14T03:37:29.891Z,79.50
2023-05-14T03:39:59.798Z,79.50
2023-05-14T03:42:28.658Z,79.50
2023-05-14T03:44:57.211Z,79.50
2023-05-14T03:47:25.852Z,79.60
2023-05-14T03:49:53.879Z,79.70
2023-05-14T03:52:22.418Z,79.60
2023-05-14T03:54:50.533Z,79.70
2023-05-14T03:57:20.456Z,79.70
2023-05-14T03:59:48.489Z,79.70
2023-05-14T04:02:17.215Z,79.70
2023-05-14T04:04:45.360Z,79.90
2023-05-14T04:07:13.478Z,79.80
2023-05-14T04:09:41.994Z,80.00
2023-05-14T04:12:10.596Z,80.00
2023-05-14T04:14:40.524Z,79.80
2023-05-14T04:17:08.660Z,79.70
2023-05-14T04:19:37.200Z,79.60
2023-05-14T04:22:05.743Z,79.70
2023-05-14T04:24:34.268Z,79.50
2023-05-14T04:27:02.798Z,79.70
2023-05-14T04:29:31.676Z,79.80
2023-05-14T04:32:01.262Z,80.10
2023-05-14T04:34:30.277Z,80.30
2023-05-14T04:36:58.797Z,80.30
2023-05-14T04:39:27.416Z,80.40
2023-05-14T04:41:55.482Z,80.40
2023-05-14T04:44:24.001Z,80.40
2023-05-14T04:46:52.032Z,80.60
2023-05-14T04:49:21.899Z,80.70
2023-05-14T04:51:50.444Z,80.90
2023-05-14T04:54:18.514Z,80.80
2023-05-14T04:56:48.211Z,80.80
2023-05-14T04:59:17.414Z,81.00
2023-05-14T05:01:46.378Z,81.00
2023-05-14T05:04:14.635Z,80.90
2023-05-14T05:06:44.671Z,80.80
2023-05-14T05:09:13.121Z,80.80
2023-05-14T05:11:41.632Z,80.80
2023-05-14T05:14:09.692Z,80.70
2023-05-14T05:16:38.269Z,80.70
2023-05-14T05:19:06.799Z,80.80
2023-05-14T05:21:35.612Z,80.60
2023-05-14T05:24:05.382Z,80.60
2023-05-14T05:26:33.940Z,80.70
2023-05-14T05:29:02.444Z,80.60
2023-05-14T05:31:30.634Z,80.70
2023-05-14T05:34:00.533Z,80.70
2023-05-14T05:36:30.243Z,80.80
2023-05-14T05:38:58.283Z,80.80
2023-05-14T05:41:28.233Z,80.80
2023-05-14T05:43:56.363Z,80.90
2023-05-14T05:46:24.562Z,80.90
2023-05-14T05:48:53.763Z,80.90
2023-05-14T05:51:21.864Z,80.90
2023-05-14T05:53:50.117Z,81.00
2023-05-14T05:56:18.225Z,81.20
2023-05-14T05:58:48.123Z,81.20
2023-05-14T06:01:16.185Z,81.20
2023-05-14T06:03:45.798Z,81.10
2023-05-14T06:06:16.216Z,81.00
2023-05-14T06:08:44.271Z,81.00
2023-05-14T06:11:12.307Z,80.90
2023-05-14T06:13:40.825Z,80.80
2023-05-14T06:16:10.929Z,80.80
2023-05-14T06:18:39.558Z,80.80
2023-05-14T06:21:08.194Z,80.70
2023-05-14T06:23:36.715Z,80.60
2023-05-14T06:26:04.784Z,80.60
2023-05-14T06:28:33.333Z,80.60
2023-05-14T06:31:01.386Z,80.60
2023-05-14T06:33:31.689Z,80.60
2023-05-14T06:36:01.422Z,80.60
2023-05-14T06:38:29.484Z,80.60
2023-05-14T06:40:57.597Z,80.60
2023-05-14T06:43:26.144Z,80.50
2023-05-14T06:45:54.758Z,80.50
2023-05-14T06:48:23.550Z,80.40
2023-05-14T06:50:52.980Z,80.60
2023-05-14T06:53:21.563Z,80.40
2023-05-14T06:55:49.689Z,80.20
2023-05-14T06:58:17.754Z,80.20
2023-05-14T07:00:46.272Z,80.10
2023-05-14T07:03:14.391Z,81.00
2023-05-14T07:05:44.968Z,80.10
2023-05-14T07:08:14.648Z,80.10
2023-05-14T07:10:43.193Z,80.10
2023-05-14T07:13:11.257Z,80.10
2023-05-14T07:15:39.771Z,79.90
2023-05-14T07:18:08.321Z,79.90
2023-05-14T07:20:36.875Z,79.80
2023-05-14T07:23:05.431Z,79.60
2023-05-14T07:25:34.897Z,79.60
2023-05-14T07:28:02.946Z,79.60
2023-05-14T07:30:31.488Z,79.50
2023-05-14T07:32:59.629Z,79.50
2023-05-14T07:35:28.322Z,79.50
2023-05-14T07:37:56.799Z,79.20
2023-05-14T07:40:25.276Z,79.00
2023-05-14T07:42:55.410Z,79.00
2023-05-14T07:45:23.556Z,78.90
2023-05-14T07:47:52.771Z,78.70
2023-05-14T07:50:21.287Z,78.60
2023-05-14T07:52:49.920Z,78.40
2023-05-14T07:55:18.044Z,78.90
2023-05-14T07:57:46.385Z,77.90
2023-05-14T08:00:17.635Z,77.70
2023-05-14T08:02:46.465Z,77.50
2023-05-14T08:05:14.707Z,77.40
2023-05-14T08:07:43.432Z,77.20
2023-05-14T08:10:12.552Z,77.20
2023-05-14T08:12:40.676Z,77.20
2023-05-14T08:15:11.543Z,77.00
2023-05-14T08:17:41.514Z,76.90
2023-05-14T08:20:11.973Z,77.00
2023-05-14T08:22:40.043Z,76.90
2023-05-14T08:25:08.868Z,76.90
2023-05-14T08:27:36.952Z,76.80
2023-05-14T08:30:06.867Z,76.60
2023-05-14T08:32:35.434Z,76.40
2023-05-14T08:35:05.619Z,76.10
2023-05-14T08:37:33.730Z,77.00
2023-05-14T08:40:01.902Z,75.90
2023-05-14T08:42:30.613Z,75.70
2023-05-14T08:45:01.991Z,75.70
2023-05-14T08:47:32.005Z,75.70
2023-05-14T08:50:05.675Z,75.60
2023-05-14T08:52:35.027Z,75.60
2023-05-14T08:55:06.240Z,76.50
2023-05-14T08:57:35.853Z,75.20
2023-05-14T09:00:08.293Z,75.00
2023-05-14T09:02:37.861Z,74.90
2023-05-14T09:05:09.298Z,74.50
2023-05-14T09:07:38.196Z,74.30
2023-05-14T09:10:09.425Z,74.30
2023-05-14T09:12:37.587Z,74.40
2023-05-14T09:15:07.281Z,74.30
2023-05-14T09:17:35.787Z,74.30
2023-05-14T09:20:05.435Z,74.40
2023-05-14T09:22:36.002Z,74.30
2023-05-14T09:25:07.207Z,74.30
2023-05-14T09:27:35.566Z,74.30
2023-05-14T09:30:09.712Z,74.10
2023-05-14T09:32:43.909Z,73.90
2023-05-14T09:35:17.785Z,74.00
2023-05-14T09:37:49.857Z,74.30
2023-05-14T09:40:19.304Z,74.30
2023-05-14T09:42:48.278Z,74.20
2023-05-14T09:45:16.911Z,74.20
2023-05-14T09:47:46.446Z,74.40
2023-05-14T09:50:15.296Z,74.40
2023-05-14T09:52:44.291Z,74.10
2023-05-14T09:55:15.014Z,74.30
2023-05-14T09:57:43.613Z,74.30
2023-05-14T10:00:12.917Z,74.10
2023-05-14T10:02:43.891Z,74.10
2023-05-14T10:05:16.378Z,74.10
2023-05-14T10:07:49.207Z,73.90
2023-05-14T10:10:21.343Z,73.50
2023-05-14T10:12:54.526Z,73.40
2023-05-14T10:15:28.312Z,74.10
2023-05-14T10:18:00.365Z,73.00
2023-05-14T10:20:29.564Z,73.10
2023-05-14T10:22:58.342Z,72.80
2023-05-14T10:25:28.224Z,72.50
2023-05-14T10:27:57.679Z,72.10
2023-05-14T10:30:26.497Z,71.90
2023-05-14T10:33:14.901Z,71.80
2023-05-14T10:36:02.470Z,71.10
2023-05-14T10:38:31.252Z,71.50
2023-05-14T10:41:03.438Z,72.20
2023-05-14T10:43:32.633Z,71.70
2023-05-14T10:46:02.827Z,71.80
2023-05-14T10:48:31.072Z,71.20
2023-05-14T10:51:00.382Z,70.70
2023-05-14T10:53:36.398Z,70.40
2023-05-14T10:56:08.341Z,70.00
2023-05-14T10:58:40.203Z,70.50
2023-05-14T11:01:10.052Z,70.50
2023-05-14T11:03:43.033Z,70.60
2023-05-14T11:06:13.594Z,70.20
2023-05-14T11:08:43.326Z,70.30
2023-05-14T11:11:12.923Z,69.90
2023-05-14T11:13:42.738Z,69.20
2023-05-14T11:16:22.942Z,68.50
2023-05-14T11:19:02.137Z,68.00
2023-05-14T11:21:30.507Z,67.50
2023-05-14T11:23:59.275Z,67.20
2023-05-14T11:26:29.203Z,66.80
2023-05-14T11:28:57.372Z,67.00
2023-05-14T11:31:26.910Z,68.10
2023-05-14T11:33:54.960Z,67.20
2023-05-14T11:36:23.433Z,67.20
2023-05-14T11:38:52.859Z,67.20
2023-05-14T11:41:23.662Z,67.20
2023-05-14T11:43:53.169Z,67.00
2023-05-14T11:46:22.226Z,66.80
2023-05-14T11:48:50.304Z,66.40
2023-05-14T11:51:18.826Z,66.40
2023-05-14T11:53:48.115Z,66.40
2023-05-14T11:56:16.237Z,66.40
2023-05-14T11:58:50.025Z,66.00
2023-05-14T12:01:20.042Z,65.70
2023-05-14T12:03:49.735Z,65.90
2023-05-14T12:06:19.688Z,66.10
2023-05-14T12:08:49.729Z,66.60
2023-05-14T12:11:22.839Z,66.60
2023-05-14T12:13:51.720Z,66.60
2023-05-14T12:16:23.142Z,67.00
2023-05-14T12:18:51.769Z,66.40
2023-05-14T12:21:20.530Z,66.50
2023-05-14T12:23:48.614Z,66.40
2023-05-14T12:26:17.282Z,66.10
2023-05-14T12:28:49.095Z,65.70
2023-05-14T12:31:17.708Z,65.00
2023-05-14T12:33:47.643Z,65.10
2023-05-14T12:38:48.793Z,64.60
2023-05-14T12:41:17.334Z,64.30
2023-05-14T12:43:46.227Z,64.20
2023-05-14T12:46:14.230Z,64.40
2023-05-14T12:48:42.742Z,64.30
2023-05-14T12:51:12.196Z,63.80
2023-05-14T12:53:40.786Z,63.50
2023-05-14T12:56:09.253Z,63.20
2023-05-14T12:58:37.811Z,62.60
2023-05-14T13:01:07.111Z,62.40
2023-05-14T13:03:35.303Z,62.60
2023-05-14T13:06:03.828Z,62.60
2023-05-14T13:08:33.750Z,62.70
2023-05-14T13:11:01.798Z,62.60
2023-05-14T13:13:30.502Z,63.20
2023-05-14T13:15:59.152Z,63.30
2023-05-14T13:18:27.976Z,62.90
2023-05-14T13:20:56.052Z,62.80
2023-05-14T13:23:24.979Z,62.80
2023-05-14T13:25:56.385Z,62.30
2023-05-14T13:28:24.936Z,61.30
2023-05-14T13:31:07.914Z,60.70
2023-05-14T13:33:37.771Z,59.60
2023-05-14T13:36:06.660Z,60.20
2023-05-14T13:38:36.231Z,60.00
2023-05-14T13:41:06.102Z,60.00
2023-05-14T13:43:36.131Z,59.90
2023-05-14T13:46:06.473Z,59.90
2023-05-14T13:48:36.388Z,60.00
2023-05-14T13:51:05.387Z,60.30
2023-05-14T13:53:33.431Z,60.40
2023-05-14T13:56:02.325Z,60.60
2023-05-14T13:58:31.921Z,60.50
2023-05-14T14:01:00.490Z,60.30
2023-05-14T14:03:28.593Z,60.10
2023-05-14T14:05:57.167Z,60.80
2023-05-14T14:08:25.310Z,60.00
2023-05-14T14:10:55.841Z,60.20
2023-05-14T14:13:24.526Z,60.80
2023-05-14T14:15:54.073Z,60.80
2023-05-14T14:18:25.565Z,60.60
2023-05-14T14:20:53.739Z,60.40
2023-05-14T14:23:21.798Z,60.30
2023-05-14T14:25:49.879Z,59.80
2023-05-14T14:28:19.641Z,59.70
2023-05-14T14:30:47.855Z,59.10
2023-05-14T14:33:17.771Z,58.80
2023-05-14T14:35:45.845Z,58.60
2023-05-14T14:38:14.082Z,58.10
2023-05-14T14:40:42.192Z,57.70
2023-05-14T14:43:10.254Z,58.10
2023-05-14T14:45:39.881Z,57.60
2023-05-14T14:48:29.097Z,57.10
2023-05-14T14:50:57.613Z,55.70
2023-05-14T14:53:26.225Z,55.90
2023-05-14T14:55:55.505Z,55.40
2023-05-14T14:58:23.846Z,55.10
2023-05-14T15:00:54.020Z,54.80
2023-05-14T15:03:24.280Z,54.50
2023-05-14T15:05:53.994Z,54.80
2023-05-14T15:08:25.954Z,54.90
2023-05-14T15:10:54.557Z,54.90
2023-05-14T15:13:22.627Z,54.90
2023-05-14T15:15:53.443Z,55.00
2023-05-14T15:18:21.837Z,55.20
2023-05-14T15:20:51.325Z,55.00
2023-05-14T15:23:19.516Z,55.30
2023-05-14T15:25:47.586Z,56.00
2023-05-14T15:28:15.787Z,55.70
2023-05-14T15:30:44.345Z,56.00
2023-05-14T15:33:12.440Z,56.80
2023-05-14T15:35:41.004Z,57.10
2023-05-14T15:38:10.439Z,57.20
2023-05-14T15:40:38.512Z,56.40
2023-05-14T15:43:08.459Z,56.40
2023-05-14T15:45:36.493Z,56.30
2023-05-14T15:48:05.339Z,55.80
2023-05-14T15:50:33.886Z,55.70
2023-05-14T15:53:02.530Z,55.50
2023-05-14T15:55:33.012Z,55.10
2023-05-14T15:58:01.150Z,54.70
2023-05-14T16:00:29.301Z,54.80
2023-05-14T16:02:57.756Z,53.90
2023-05-14T16:05:26.376Z,53.80
2023-05-14T16:07:54.488Z,52.90
2023-05-14T16:10:22.891Z,52.60
2023-05-14T16:12:53.014Z,51.80
2023-05-14T16:15:21.068Z,51.30
2023-05-14T16:17:49.725Z,51.90
2023-05-14T16:20:18.375Z,51.80
2023-05-14T16:22:46.862Z,52.10
2023-05-14T16:25:14.884Z,52.20
2023-05-14T16:27:43.803Z,52.40
2023-05-14T16:30:13.900Z,52.40
2023-05-14T16:32:43.445Z,52.30
2023-05-14T16:35:12.000Z,52.90
2023-05-14T16:37:40.532Z,52.90
2023-05-14T16:40:11.964Z,52.80
2023-05-14T16:42:40.119Z,53.00
2023-05-14T16:45:09.727Z,53.10
2023-05-14T16:47:39.662Z,53.10
2023-05-14T16:50:08.830Z,52.80
2023-05-14T16:52:37.589Z,53.00
2023-05-14T16:55:06.848Z,53.10
2023-05-14T16:57:35.362Z,53.10
2023-05-14T17:02:56.533Z,53.00
2023-05-14T17:05:25.664Z,53.00
2023-05-14T17:07:53.868Z,52.80
2023-05-14T17:10:22.433Z,52.80
2023-05-14T17:12:51.940Z,53.00
2023-05-14T17:15:20.246Z,53.20
2023-05-14T17:17:48.793Z,53.10
2023-05-14T17:20:20.189Z,53.10
2023-05-14T17:22:48.257Z,53.10
2023-05-14T17:25:17.098Z,53.00
2023-05-14T17:27:45.159Z,52.90
2023-05-14T17:30:14.284Z,52.90
2023-05-14T17:32:42.437Z,53.40
2023-05-14T17:35:13.071Z,53.40
2023-05-14T17:37:43.310Z,53.50
2023-05-14T17:40:14.010Z,53.60
2023-05-14T17:42:42.081Z,53.70
2023-05-14T17:45:11.197Z,53.40
2023-05-14T17:47:39.270Z,53.90
2023-05-14T17:50:08.820Z,54.00
2023-05-14T17:52:38.232Z,54.00
2023-05-14T17:55:10.887Z,54.00
2023-05-14T17:57:40.123Z,54.30
2023-05-14T18:00:09.410Z,54.50
2023-05-14T18:02:38.640Z,54.60
2023-05-14T18:05:07.476Z,54.60
2023-05-14T18:07:36.428Z,54.50
2023-05-14T18:10:05.232Z,54.40
2023-05-14T18:12:34.925Z,54.50
2023-05-14T18:15:02.946Z,54.40
2023-05-14T18:17:33.577Z,54.60
2023-05-14T18:20:03.372Z,54.80
2023-05-14T18:22:31.419Z,55.00
2023-05-14T18:25:00.438Z,55.20
2023-05-14T18:27:28.497Z,55.30
2023-05-14T18:29:58.236Z,55.60
2023-05-14T18:32:26.338Z,55.40
2023-05-14T18:34:54.377Z,55.60
2023-05-14T18:37:22.444Z,55.40
2023-05-14T18:39:50.509Z,55.50
2023-05-14T18:42:19.527Z,55.50
2023-05-14T18:44:47.590Z,55.60
2023-05-14T18:47:17.554Z,55.50
2023-05-14T18:49:47.161Z,55.50
2023-05-14T18:52:15.307Z,55.60
2023-05-14T18:54:43.361Z,55.60
2023-05-14T18:57:13.169Z,55.80
2023-05-14T19:02:31.906Z,56.20
2023-05-14T19:05:01.943Z,56.40
2023-05-14T19:07:30.521Z,56.80
2023-05-14T19:09:59.033Z,57.00
2023-05-14T19:12:48.010Z,57.20
2023-05-14T19:15:16.692Z,57.60
2023-05-14T19:17:46.168Z,57.70
2023-05-14T19:20:14.279Z,58.00
2023-05-14T19:22:42.416Z,58.10
2023-05-14T19:25:12.129Z,58.30
2023-05-14T19:27:40.300Z,58.60
2023-05-14T19:30:09.547Z,58.70
2023-05-14T19:32:38.898Z,58.80
2023-05-14T19:35:08.911Z,58.80
2023-05-14T19:37:36.980Z,59.10
2023-05-14T19:40:06.686Z,59.30
2023-05-14T19:42:35.216Z,59.40
2023-05-14T19:45:03.839Z,59.50
2023-05-14T19:47:32.026Z,59.60
2023-05-14T19:50:00.068Z,60.00
2023-05-14T19:52:30.000Z,60.50
2023-05-14T19:54:58.091Z,60.80
2023-05-14T19:57:27.064Z,60.90
2023-05-14T19:59:55.073Z,61.10
2023-05-14T20:02:23.217Z,61.50
2023-05-14T20:04:52.133Z,61.60
2023-05-14T20:07:20.197Z,61.70
2023-05-14T20:09:49.580Z,61.90
2023-05-14T20:12:19.031Z,62.20
2023-05-14T20:14:47.125Z,62.20
2023-05-14T20:17:15.958Z,62.20
2023-05-14T20:19:44.236Z,62.30
2023-05-14T20:22:12.396Z,62.70
2023-05-14T20:24:41.626Z,62.80
2023-05-14T20:27:12.400Z,62.90
2023-05-14T20:29:40.998Z,63.10
2023-05-14T20:32:09.354Z,63.20
2023-05-14T20:34:37.394Z,63.30
2023-05-14T20:37:06.759Z,63.30
2023-05-14T20:39:35.299Z,63.50
2023-05-14T20:42:03.332Z,63.50
2023-05-14T20:44:32.856Z,63.70
2023-05-14T20:47:01.207Z,64.00
2023-05-14T20:49:30.109Z,64.00
2023-05-14T20:51:58.870Z,64.20
2023-05-14T20:54:26.893Z,64.30
2023-05-14T20:56:55.076Z,64.70
2023-05-14T20:59:23.141Z,65.00
2023-05-14T21:01:52.814Z,65.10
2023-05-14T21:04:21.605Z,65.20
2023-05-14T21:06:49.923Z,65.30
2023-05-14T21:09:17.978Z,65.60
2023-05-14T21:11:46.505Z,65.60
2023-05-14T21:14:14.499Z,66.00
2023-05-14T21:16:43.407Z,66.00
2023-05-14T21:19:15.254Z,67.30
2023-05-14T21:21:43.594Z,66.60
2023-05-14T21:24:11.618Z,66.50
2023-05-14T21:26:40.900Z,66.70
2023-05-14T21:29:08.961Z,66.60
2023-05-14T21:31:37.709Z,66.60
2023-05-14T21:34:05.839Z,66.80
2023-05-14T21:36:35.348Z,66.90
2023-05-14T21:39:04.045Z,67.00
2023-05-14T21:41:33.843Z,67.20
2023-05-14T21:44:02.350Z,67.40
2023-05-14T21:46:30.492Z,67.50
2023-05-14T21:48:58.613Z,67.60
2023-05-14T21:51:27.213Z,67.80
2023-05-14T21:53:57.115Z,67.80
2023-05-14T21:56:25.236Z,67.80
2023-05-14T21:58:56.059Z,67.80
2023-05-14T22:01:24.735Z,67.90
2023-05-14T22:03:52.829Z,68.00
2023-05-14T22:06:21.479Z,67.80
2023-05-14T22:08:49.512Z,67.90
2023-05-14T22:11:19.457Z,68.10
2023-05-14T22:13:47.999Z,68.00
2023-05-14T22:16:16.564Z,68.00
2023-05-14T22:18:45.151Z,68.20
2023-05-14T22:21:13.196Z,68.30
2023-05-14T22:23:41.709Z,68.40
2023-05-14T22:26:09.778Z,68.50
2023-05-14T22:28:43.351Z,68.60
2023-05-14T22:31:11.485Z,68.90
2023-05-14T22:33:40.043Z,69.00
2023-05-14T22:36:09.184Z,69.10
2023-05-14T22:38:37.261Z,69.30
2023-05-14T22:41:05.820Z,69.30
2023-05-14T22:43:34.356Z,69.50
2023-05-14T22:46:03.866Z,69.50
2023-05-14T22:48:31.973Z,69.70
2023-05-14T22:51:00.003Z,69.50
2023-05-14T22:53:28.571Z,69.50
2023-05-14T22:55:56.621Z,69.70
2023-05-14T22:58:24.656Z,69.90
2023-05-14T23:00:53.173Z,70.00
2023-05-14T23:03:22.593Z,69.70
2023-05-14T23:05:52.524Z,69.70
2023-05-14T23:08:20.600Z,69.60
2023-05-14T23:10:49.156Z,69.60
2023-05-14T23:13:17.761Z,69.60
2023-05-14T23:15:46.319Z,69.60
2023-05-14T23:18:14.585Z,69.50
2023-05-14T23:20:44.602Z,69.40
2023-05-14T23:23:12.685Z,69.50
2023-05-14T23:25:41.233Z,69.30
2023-05-14T23:28:10.098Z,69.40
2023-05-14T23:30:38.622Z,69.50
2023-05-14T23:33:07.002Z,69.40
2023-05-14T23:35:35.607Z,69.50
2023-05-14T23:38:05.910Z,69.50
2023-05-14T23:40:34.744Z,69.70
2023-05-14T23:43:03.265Z,70.60
2023-05-14T23:45:32.280Z,69.50
2023-05-14T23:48:02.153Z,69.50
2023-05-14T23:50:30.246Z,69.70
2023-05-14T23:52:58.786Z,69.70
2023-05-14T23:55:28.784Z,69.70
2023-05-14T23:57:56.826Z,70.00
